sensor_id;sensor_type;location;lat;lon;timestamp;temperature;humidity
39347;DHT22;26262;49.836;6.632;2023-07-09T00:00:59;18.30;99.90
39347;DHT22;26262;49.836;6.632;2023-07-09T00:03:24;18.20;99.90
39347;DHT22;26262;49.836;6.632;2023-07-09T00:05:50;18.20;99.90
39347;DHT22;26262;49.836;6.632;2023-07-09T00:10:43;18.30;99.90
39347;DHT22;26262;49.836;6.632;2023-07-09T00:13:09;18.10;99.90
39347;DHT22;26262;49.836;6.632;2023-07-09T00:15:34;18.10;99.90
39347;DHT22;26262;49.836;6.632;2023-07-09T00:18:00;18.20;99.90
39347;DHT22;26262;49.836;6.632;2023-07-09T00:20:25;17.90;99.90
39347;DHT22;26262;49.836;6.632;2023-07-09T00:22:51;18.00;99.90
39347;DHT22;26262;49.836;6.632;2023-07-09T00:25:19;18.20;99.90
39347;DHT22;26262;49.836;6.632;2023-07-09T00:27:45;18.10;99.90
39347;DHT22;26262;49.836;6.632;2023-07-09T00:30:14;17.90;99.90
39347;DHT22;26262;49.836;6.632;2023-07-09T00:32:40;18.10;99.90
39347;DHT22;26262;49.836;6.632;2023-07-09T00:35:09;18.00;99.90
39347;DHT22;26262;49.836;6.632;2023-07-09T00:37:34;18.20;99.90
39347;DHT22;26262;49.836;6.632;2023-07-09T00:40:00;17.90;99.90
39347;DHT22;26262;49.836;6.632;2023-07-09T00:42:25;17.90;99.90
39347;DHT22;26262;49.836;6.632;2023-07-09T00:44:51;18.10;99.90
39347;DHT22;26262;49.836;6.632;2023-07-09T00:47:18;18.10;99.90
39347;DHT22;26262;49.836;6.632;2023-07-09T00:49:45;17.80;99.90
39347;DHT22;26262;49.836;6.632;2023-07-09T00:52:27;17.80;99.90
39347;DHT22;26262;49.836;6.632;2023-07-09T00:54:54;17.80;99.90
39347;DHT22;26262;49.836;6.632;2023-07-09T00:57:22;17.70;99.90
39347;DHT22;26262;49.836;6.632;2023-07-09T00:59:53;17.70;99.90
39347;DHT22;26262;49.836;6.632;2023-07-09T01:02:22;17.70;99.90
39347;DHT22;26262;49.836;6.632;2023-07-09T01:04:50;17.70;99.90
39347;DHT22;26262;49.836;6.632;2023-07-09T01:07:16;17.60;99.90
39347;DHT22;26262;49.836;6.632;2023-07-09T01:09:41;17.80;99.90
39347;DHT22;26262;49.836;6.632;2023-07-09T01:12:07;17.80;99.90
39347;DHT22;26262;49.836;6.632;2023-07-09T01:14:34;17.80;99.90
39347;DHT22;26262;49.836;6.632;2023-07-09T01:17:01;17.50;99.90
39347;DHT22;26262;49.836;6.632;2023-07-09T01:19:29;17.50;99.90
39347;DHT22;26262;49.836;6.632;2023-07-09T01:21:55;17.40;99.90
39347;DHT22;26262;49.836;6.632;2023-07-09T01:27:05;17.30;99.90
39347;DHT22;26262;49.836;6.632;2023-07-09T01:29:32;17.20;99.90
39347;DHT22;26262;49.836;6.632;2023-07-09T01:31:59;17.20;99.90
39347;DHT22;26262;49.836;6.632;2023-07-09T01:34:25;17.20;99.90
39347;DHT22;26262;49.836;6.632;2023-07-09T01:36:50;17.20;99.90
39347;DHT22;26262;49.836;6.632;2023-07-09T01:39:16;17.40;99.90
39347;DHT22;26262;49.836;6.632;2023-07-09T01:41:42;17.10;99.90
39347;DHT22;26262;49.836;6.632;2023-07-09T01:44:08;17.10;99.90
39347;DHT22;26262;49.836;6.632;2023-07-09T01:46:33;17.00;99.90
39347;DHT22;26262;49.836;6.632;2023-07-09T01:48:58;17.00;99.90
39347;DHT22;26262;49.836;6.632;2023-07-09T01:51:24;17.00;99.90
39347;DHT22;26262;49.836;6.632;2023-07-09T01:53:50;16.90;99.90
39347;DHT22;26262;49.836;6.632;2023-07-09T01:56:16;16.80;99.90
39347;DHT22;26262;49.836;6.632;2023-07-09T01:58:41;17.00;99.90
39347;DHT22;26262;49.836;6.632;2023-07-09T02:01:07;17.00;99.90
39347;DHT22;26262;49.836;6.632;2023-07-09T02:03:33;17.00;99.90
39347;DHT22;26262;49.836;6.632;2023-07-09T02:05:59;16.90;99.90
39347;DHT22;26262;49.836;6.632;2023-07-09T02:08:24;17.00;99.90
39347;DHT22;26262;49.836;6.632;2023-07-09T02:10:50;16.90;99.90
39347;DHT22;26262;49.836;6.632;2023-07-09T02:13:16;16.90;99.90
39347;DHT22;26262;49.836;6.632;2023-07-09T02:15:42;16.80;99.90
39347;DHT22;26262;49.836;6.632;2023-07-09T02:18:09;16.90;99.90
39347;DHT22;26262;49.836;6.632;2023-07-09T02:20:34;16.70;99.90
39347;DHT22;26262;49.836;6.632;2023-07-09T02:23:00;16.70;99.90
39347;DHT22;26262;49.836;6.632;2023-07-09T02:25:25;16.70;99.90
39347;DHT22;26262;49.836;6.632;2023-07-09T02:27:50;16.70;99.90
39347;DHT22;26262;49.836;6.632;2023-07-09T02:30:16;16.80;99.90
39347;DHT22;26262;49.836;6.632;2023-07-09T02:32:41;16.90;99.90
39347;DHT22;26262;49.836;6.632;2023-07-09T02:35:07;17.10;99.90
39347;DHT22;26262;49.836;6.632;2023-07-09T02:37:32;16.90;99.90
39347;DHT22;26262;49.836;6.632;2023-07-09T02:39:58;16.90;99.90
39347;DHT22;26262;49.836;6.632;2023-07-09T02:42:24;16.70;99.90
39347;DHT22;26262;49.836;6.632;2023-07-09T02:44:50;16.70;99.90
39347;DHT22;26262;49.836;6.632;2023-07-09T02:47:15;16.80;99.90
39347;DHT22;26262;49.836;6.632;2023-07-09T02:49:41;16.90;99.90
39347;DHT22;26262;49.836;6.632;2023-07-09T02:52:06;16.90;99.90
39347;DHT22;26262;49.836;6.632;2023-07-09T02:54:32;16.90;99.90
39347;DHT22;26262;49.836;6.632;2023-07-09T02:56:58;16.70;99.90
39347;DHT22;26262;49.836;6.632;2023-07-09T02:59:23;16.80;99.90
39347;DHT22;26262;49.836;6.632;2023-07-09T03:01:49;16.60;99.90
39347;DHT22;26262;49.836;6.632;2023-07-09T03:04:15;16.70;99.90
39347;DHT22;26262;49.836;6.632;2023-07-09T03:06:40;16.60;99.90
39347;DHT22;26262;49.836;6.632;2023-07-09T03:09:06;16.70;99.90
39347;DHT22;26262;49.836;6.632;2023-07-09T03:11:33;16.60;99.90
39347;DHT22;26262;49.836;6.632;2023-07-09T03:13:58;16.50;99.90
39347;DHT22;26262;49.836;6.632;2023-07-09T03:16:26;16.50;99.90
39347;DHT22;26262;49.836;6.632;2023-07-09T03:18:51;16.60;99.90
39347;DHT22;26262;49.836;6.632;2023-07-09T03:21:17;16.80;99.90
39347;DHT22;26262;49.836;6.632;2023-07-09T03:23:42;16.80;99.90
39347;DHT22;26262;49.836;6.632;2023-07-09T03:26:08;16.80;99.90
39347;DHT22;26262;49.836;6.632;2023-07-09T03:28:33;16.80;99.90
39347;DHT22;26262;49.836;6.632;2023-07-09T03:30:58;16.70;99.90
39347;DHT22;26262;49.836;6.632;2023-07-09T03:33:24;16.60;99.90
39347;DHT22;26262;49.836;6.632;2023-07-09T03:35:50;16.60;99.90
39347;DHT22;26262;49.836;6.632;2023-07-09T03:38:15;16.70;99.90
39347;DHT22;26262;49.836;6.632;2023-07-09T03:40:41;16.70;99.90
39347;DHT22;26262;49.836;6.632;2023-07-09T03:43:08;16.60;99.90
39347;DHT22;26262;49.836;6.632;2023-07-09T03:45:34;16.60;99.90
39347;DHT22;26262;49.836;6.632;2023-07-09T03:47:59;16.40;99.90
39347;DHT22;26262;49.836;6.632;2023-07-09T03:50:25;16.30;99.90
39347;DHT22;26262;49.836;6.632;2023-07-09T03:52:50;16.30;99.90
39347;DHT22;26262;49.836;6.632;2023-07-09T03:55:15;16.30;99.90
39347;DHT22;26262;49.836;6.632;2023-07-09T03:57:41;16.40;99.90
39347;DHT22;26262;49.836;6.632;2023-07-09T04:00:06;16.50;99.90
39347;DHT22;26262;49.836;6.632;2023-07-09T04:02:36;16.50;99.90
39347;DHT22;26262;49.836;6.632;2023-07-09T04:05:01;16.30;99.90
39347;DHT22;26262;49.836;6.632;2023-07-09T04:07:26;16.20;99.90
39347;DHT22;26262;49.836;6.632;2023-07-09T04:09:52;16.10;99.90
39347;DHT22;26262;49.836;6.632;2023-07-09T04:12:17;16.00;99.90
39347;DHT22;26262;49.836;6.632;2023-07-09T04:14:43;16.20;99.90
39347;DHT22;26262;49.836;6.632;2023-07-09T04:17:08;16.40;99.90
39347;DHT22;26262;49.836;6.632;2023-07-09T04:19:34;16.50;99.90
39347;DHT22;26262;49.836;6.632;2023-07-09T04:21:59;16.20;99.90
39347;DHT22;26262;49.836;6.632;2023-07-09T04:24:24;16.10;99.90
39347;DHT22;26262;49.836;6.632;2023-07-09T04:26:52;16.10;99.90
39347;DHT22;26262;49.836;6.632;2023-07-09T04:29:22;16.30;99.90
39347;DHT22;26262;49.836;6.632;2023-07-09T04:31:47;16.40;99.90
39347;DHT22;26262;49.836;6.632;2023-07-09T04:34:12;16.60;99.90
39347;DHT22;26262;49.836;6.632;2023-07-09T04:36:38;16.50;99.90
39347;DHT22;26262;49.836;6.632;2023-07-09T04:39:03;16.40;99.90
39347;DHT22;26262;49.836;6.632;2023-07-09T04:41:29;16.40;99.90
39347;DHT22;26262;49.836;6.632;2023-07-09T04:43:55;16.30;99.90
39347;DHT22;26262;49.836;6.632;2023-07-09T04:46:20;16.20;99.90
39347;DHT22;26262;49.836;6.632;2023-07-09T04:48:46;16.10;99.90
39347;DHT22;26262;49.836;6.632;2023-07-09T04:51:11;16.30;99.90
39347;DHT22;26262;49.836;6.632;2023-07-09T04:53:36;16.30;99.90
39347;DHT22;26262;49.836;6.632;2023-07-09T04:56:02;16.40;99.90
39347;DHT22;26262;49.836;6.632;2023-07-09T04:58:28;16.50;99.90
39347;DHT22;26262;49.836;6.632;2023-07-09T05:00:56;16.50;99.90
39347;DHT22;26262;49.836;6.632;2023-07-09T05:03:21;16.70;99.90
39347;DHT22;26262;49.836;6.632;2023-07-09T05:05:47;16.90;99.90
39347;DHT22;26262;49.836;6.632;2023-07-09T05:08:13;16.90;99.90
39347;DHT22;26262;49.836;6.632;2023-07-09T05:10:45;16.90;99.90
39347;DHT22;26262;49.836;6.632;2023-07-09T05:13:11;17.00;99.90
39347;DHT22;26262;49.836;6.632;2023-07-09T05:15:40;17.20;99.90
39347;DHT22;26262;49.836;6.632;2023-07-09T05:18:05;17.40;99.90
39347;DHT22;26262;49.836;6.632;2023-07-09T05:20:31;17.50;99.90
39347;DHT22;26262;49.836;6.632;2023-07-09T05:22:56;17.60;99.90
39347;DHT22;26262;49.836;6.632;2023-07-09T05:25:21;17.70;99.90
39347;DHT22;26262;49.836;6.632;2023-07-09T05:27:47;17.80;99.90
39347;DHT22;26262;49.836;6.632;2023-07-09T05:30:12;18.00;99.90
39347;DHT22;26262;49.836;6.632;2023-07-09T05:32:38;18.10;99.90
39347;DHT22;26262;49.836;6.632;2023-07-09T05:35:03;18.20;99.90
39347;DHT22;26262;49.836;6.632;2023-07-09T05:37:29;18.30;99.90
39347;DHT22;26262;49.836;6.632;2023-07-09T05:39:55;18.30;99.90
39347;DHT22;26262;49.836;6.632;2023-07-09T05:42:21;18.40;99.90
39347;DHT22;26262;49.836;6.632;2023-07-09T05:44:46;18.40;99.90
39347;DHT22;26262;49.836;6.632;2023-07-09T05:47:11;18.50;99.90
39347;DHT22;26262;49.836;6.632;2023-07-09T05:49:38;18.60;99.90
39347;DHT22;26262;49.836;6.632;2023-07-09T05:52:03;18.70;99.90
39347;DHT22;26262;49.836;6.632;2023-07-09T05:54:29;18.80;99.90
39347;DHT22;26262;49.836;6.632;2023-07-09T05:56:54;18.70;99.90
39347;DHT22;26262;49.836;6.632;2023-07-09T05:59:20;18.80;99.90
39347;DHT22;26262;49.836;6.632;2023-07-09T06:01:45;19.00;99.90
39347;DHT22;26262;49.836;6.632;2023-07-09T06:04:11;19.10;99.90
39347;DHT22;26262;49.836;6.632;2023-07-09T06:06:39;19.20;99.90
39347;DHT22;26262;49.836;6.632;2023-07-09T06:09:06;19.40;99.90
39347;DHT22;26262;49.836;6.632;2023-07-09T06:11:32;19.50;99.90
39347;DHT22;26262;49.836;6.632;2023-07-09T06:13:57;19.60;99.90
39347;DHT22;26262;49.836;6.632;2023-07-09T06:16:23;19.70;99.90
39347;DHT22;26262;49.836;6.632;2023-07-09T06:18:49;19.80;99.90
39347;DHT22;26262;49.836;6.632;2023-07-09T06:21:14;20.00;99.90
39347;DHT22;26262;49.836;6.632;2023-07-09T06:23:40;20.00;99.90
39347;DHT22;26262;49.836;6.632;2023-07-09T06:26:05;20.10;99.90
39347;DHT22;26262;49.836;6.632;2023-07-09T06:28:31;20.20;99.90
39347;DHT22;26262;49.836;6.632;2023-07-09T06:30:57;20.20;99.90
39347;DHT22;26262;49.836;6.632;2023-07-09T06:33:23;20.20;99.90
39347;DHT22;26262;49.836;6.632;2023-07-09T06:35:49;20.30;99.90
39347;DHT22;26262;49.836;6.632;2023-07-09T06:38:15;20.40;99.90
39347;DHT22;26262;49.836;6.632;2023-07-09T06:40:41;20.60;99.90
39347;DHT22;26262;49.836;6.632;2023-07-09T06:43:06;20.70;99.90
39347;DHT22;26262;49.836;6.632;2023-07-09T06:45:32;20.80;99.90
39347;DHT22;26262;49.836;6.632;2023-07-09T06:47:59;20.90;99.90
39347;DHT22;26262;49.836;6.632;2023-07-09T06:50:24;21.00;99.90
39347;DHT22;26262;49.836;6.632;2023-07-09T06:52:50;21.10;99.90
39347;DHT22;26262;49.836;6.632;2023-07-09T06:55:15;21.10;99.90
39347;DHT22;26262;49.836;6.632;2023-07-09T06:57:41;21.20;99.90
39347;DHT22;26262;49.836;6.632;2023-07-09T07:00:06;21.30;99.90
39347;DHT22;26262;49.836;6.632;2023-07-09T07:02:32;21.40;99.90
39347;DHT22;26262;49.836;6.632;2023-07-09T07:04:57;21.60;99.90
39347;DHT22;26262;49.836;6.632;2023-07-09T07:07:23;21.70;99.90
39347;DHT22;26262;49.836;6.632;2023-07-09T07:09:48;21.90;99.90
39347;DHT22;26262;49.836;6.632;2023-07-09T07:12:23;22.00;99.90
39347;DHT22;26262;49.836;6.632;2023-07-09T07:14:49;22.10;99.90
39347;DHT22;26262;49.836;6.632;2023-07-09T07:17:14;22.30;99.90
39347;DHT22;26262;49.836;6.632;2023-07-09T07:19:40;22.40;99.90
39347;DHT22;26262;49.836;6.632;2023-07-09T07:22:05;22.60;99.90
39347;DHT22;26262;49.836;6.632;2023-07-09T07:24:32;22.70;99.90
39347;DHT22;26262;49.836;6.632;2023-07-09T07:26:57;22.70;99.90
39347;DHT22;26262;49.836;6.632;2023-07-09T07:29:23;22.90;99.90
39347;DHT22;26262;49.836;6.632;2023-07-09T07:31:48;23.00;99.90
39347;DHT22;26262;49.836;6.632;2023-07-09T07:34:14;23.10;99.90
39347;DHT22;26262;49.836;6.632;2023-07-09T07:36:39;23.30;99.90
39347;DHT22;26262;49.836;6.632;2023-07-09T07:39:05;23.40;99.90
39347;DHT22;26262;49.836;6.632;2023-07-09T07:41:30;23.60;99.90
39347;DHT22;26262;49.836;6.632;2023-07-09T07:43:56;23.70;99.90
39347;DHT22;26262;49.836;6.632;2023-07-09T07:46:21;23.90;99.90
39347;DHT22;26262;49.836;6.632;2023-07-09T07:48:46;24.00;99.90
39347;DHT22;26262;49.836;6.632;2023-07-09T07:51:12;24.20;99.90
39347;DHT22;26262;49.836;6.632;2023-07-09T07:53:38;24.30;99.90
39347;DHT22;26262;49.836;6.632;2023-07-09T07:56:03;24.50;99.90
39347;DHT22;26262;49.836;6.632;2023-07-09T07:58:29;24.60;99.90
39347;DHT22;26262;49.836;6.632;2023-07-09T08:00:55;24.70;99.90
39347;DHT22;26262;49.836;6.632;2023-07-09T08:03:22;24.80;99.90
39347;DHT22;26262;49.836;6.632;2023-07-09T08:05:48;25.00;99.90
39347;DHT22;26262;49.836;6.632;2023-07-09T08:08:13;25.50;99.90
39347;DHT22;26262;49.836;6.632;2023-07-09T08:10:39;25.50;99.90
39347;DHT22;26262;49.836;6.632;2023-07-09T08:13:04;25.60;99.90
39347;DHT22;26262;49.836;6.632;2023-07-09T08:15:30;25.80;99.90
39347;DHT22;26262;49.836;6.632;2023-07-09T08:17:55;26.00;99.90
39347;DHT22;26262;49.836;6.632;2023-07-09T08:20:21;26.20;99.90
39347;DHT22;26262;49.836;6.632;2023-07-09T08:22:46;26.40;99.90
39347;DHT22;26262;49.836;6.632;2023-07-09T08:25:11;26.60;99.90
39347;DHT22;26262;49.836;6.632;2023-07-09T08:27:37;26.80;99.90
39347;DHT22;26262;49.836;6.632;2023-07-09T08:30:02;26.90;99.90
39347;DHT22;26262;49.836;6.632;2023-07-09T08:32:28;27.00;99.90
39347;DHT22;26262;49.836;6.632;2023-07-09T08:34:54;27.20;99.90
39347;DHT22;26262;49.836;6.632;2023-07-09T08:37:20;27.30;99.90
39347;DHT22;26262;49.836;6.632;2023-07-09T08:39:45;27.50;99.90
39347;DHT22;26262;49.836;6.632;2023-07-09T08:42:11;27.80;99.90
39347;DHT22;26262;49.836;6.632;2023-07-09T08:47:16;28.20;99.90
39347;DHT22;26262;49.836;6.632;2023-07-09T08:54:55;28.80;99.90
39347;DHT22;26262;49.836;6.632;2023-07-09T08:57:24;28.80;99.90
39347;DHT22;26262;49.836;6.632;2023-07-09T08:59:51;28.90;99.90
39347;DHT22;26262;49.836;6.632;2023-07-09T09:05:02;29.30;99.90
39347;DHT22;26262;49.836;6.632;2023-07-09T09:07:42;29.80;99.90
39347;DHT22;26262;49.836;6.632;2023-07-09T09:10:12;29.90;98.60
39347;DHT22;26262;49.836;6.632;2023-07-09T09:12:38;30.20;98.80
39347;DHT22;26262;49.836;6.632;2023-07-09T09:15:18;30.40;98.40
39347;DHT22;26262;49.836;6.632;2023-07-09T09:17:45;30.50;98.20
39347;DHT22;26262;49.836;6.632;2023-07-09T09:20:22;30.70;96.40
39347;DHT22;26262;49.836;6.632;2023-07-09T09:25:21;31.20;96.00
39347;DHT22;26262;49.836;6.632;2023-07-09T09:27:48;31.40;95.70
39347;DHT22;26262;49.836;6.632;2023-07-09T09:30:14;31.50;94.90
39347;DHT22;26262;49.836;6.632;2023-07-09T09:32:44;31.60;94.20
39347;DHT22;26262;49.836;6.632;2023-07-09T09:35:13;31.80;92.90
39347;DHT22;26262;49.836;6.632;2023-07-09T09:37:39;31.90;91.80
39347;DHT22;26262;49.836;6.632;2023-07-09T09:40:05;32.20;92.30
39347;DHT22;26262;49.836;6.632;2023-07-09T09:42:30;32.40;91.20
39347;DHT22;26262;49.836;6.632;2023-07-09T09:44:57;32.50;91.30
39347;DHT22;26262;49.836;6.632;2023-07-09T09:47:25;32.70;91.80
39347;DHT22;26262;49.836;6.632;2023-07-09T09:49:52;32.80;91.10
39347;DHT22;26262;49.836;6.632;2023-07-09T09:52:18;32.90;90.70
39347;DHT22;26262;49.836;6.632;2023-07-09T09:54:46;32.70;88.10
39347;DHT22;26262;49.836;6.632;2023-07-09T09:57:15;32.80;87.70
39347;DHT22;26262;49.836;6.632;2023-07-09T09:59:41;32.50;87.50
39347;DHT22;26262;49.836;6.632;2023-07-09T10:02:15;32.60;87.60
39347;DHT22;26262;49.836;6.632;2023-07-09T10:04:41;32.90;89.80
39347;DHT22;26262;49.836;6.632;2023-07-09T10:07:08;32.80;85.70
39347;DHT22;26262;49.836;6.632;2023-07-09T10:12:32;33.10;89.50
39347;DHT22;26262;49.836;6.632;2023-07-09T10:20:18;33.30;85.00
39347;DHT22;26262;49.836;6.632;2023-07-09T10:23:03;33.80;86.40
39347;DHT22;26262;49.836;6.632;2023-07-09T10:31:07;34.40;81.60
39347;DHT22;26262;49.836;6.632;2023-07-09T10:33:46;34.60;79.30
39347;DHT22;26262;49.836;6.632;2023-07-09T10:36:20;34.70;79.20
39347;DHT22;26262;49.836;6.632;2023-07-09T10:41:21;34.60;79.00
39347;DHT22;26262;49.836;6.632;2023-07-09T10:44:01;35.10;77.10
39347;DHT22;26262;49.836;6.632;2023-07-09T10:46:31;35.20;77.50
39347;DHT22;26262;49.836;6.632;2023-07-09T10:48:57;35.30;74.90
39347;DHT22;26262;49.836;6.632;2023-07-09T10:51:26;35.50;76.40
39347;DHT22;26262;49.836;6.632;2023-07-09T10:53:56;35.40;75.00
39347;DHT22;26262;49.836;6.632;2023-07-09T10:56:26;35.10;74.60
39347;DHT22;26262;49.836;6.632;2023-07-09T11:01:31;35.80;77.30
39347;DHT22;26262;49.836;6.632;2023-07-09T11:03:59;36.20;73.00
39347;DHT22;26262;49.836;6.632;2023-07-09T11:06:32;35.60;71.40
39347;DHT22;26262;49.836;6.632;2023-07-09T11:08:59;36.00;70.40
39347;DHT22;26262;49.836;6.632;2023-07-09T11:13:52;35.80;71.90
39347;DHT22;26262;49.836;6.632;2023-07-09T11:16:27;35.80;72.70
39347;DHT22;26262;49.836;6.632;2023-07-09T11:18:55;36.00;72.70
39347;DHT22;26262;49.836;6.632;2023-07-09T11:21:21;36.30;71.20
39347;DHT22;26262;49.836;6.632;2023-07-09T11:23:49;36.40;70.80
39347;DHT22;26262;49.836;6.632;2023-07-09T11:28:40;36.30;70.60
39347;DHT22;26262;49.836;6.632;2023-07-09T11:31:06;35.90;69.60
39347;DHT22;26262;49.836;6.632;2023-07-09T11:33:33;35.90;70.50
39347;DHT22;26262;49.836;6.632;2023-07-09T11:36:11;35.90;68.00
39347;DHT22;26262;49.836;6.632;2023-07-09T11:38:46;35.90;68.60
39347;DHT22;26262;49.836;6.632;2023-07-09T11:44:03;36.40;68.10
39347;DHT22;26262;49.836;6.632;2023-07-09T11:46:29;36.80;67.50
39347;DHT22;26262;49.836;6.632;2023-07-09T11:48:56;36.40;67.20
39347;DHT22;26262;49.836;6.632;2023-07-09T11:51:23;36.90;66.30
39347;DHT22;26262;49.836;6.632;2023-07-09T11:53:51;37.30;66.80
39347;DHT22;26262;49.836;6.632;2023-07-09T11:56:21;37.90;67.40
39347;DHT22;26262;49.836;6.632;2023-07-09T11:58:50;38.40;64.60
39347;DHT22;26262;49.836;6.632;2023-07-09T12:01:17;38.40;63.10
39347;DHT22;26262;49.836;6.632;2023-07-09T12:03:43;38.20;63.10
39347;DHT22;26262;49.836;6.632;2023-07-09T12:06:20;37.90;61.90
39347;DHT22;26262;49.836;6.632;2023-07-09T12:08:46;37.90;63.50
39347;DHT22;26262;49.836;6.632;2023-07-09T12:11:24;37.80;62.00
39347;DHT22;26262;49.836;6.632;2023-07-09T12:13:50;37.60;63.30
39347;DHT22;26262;49.836;6.632;2023-07-09T12:16:24;37.40;63.70
39347;DHT22;26262;49.836;6.632;2023-07-09T12:18:50;36.90;64.60
39347;DHT22;26262;49.836;6.632;2023-07-09T12:21:15;36.80;64.90
39347;DHT22;26262;49.836;6.632;2023-07-09T12:23:41;36.50;66.00
39347;DHT22;26262;49.836;6.632;2023-07-09T12:26:10;36.10;66.10
39347;DHT22;26262;49.836;6.632;2023-07-09T12:28:37;36.20;64.70
39347;DHT22;26262;49.836;6.632;2023-07-09T12:31:03;36.20;65.40
39347;DHT22;26262;49.836;6.632;2023-07-09T12:33:28;36.00;67.00
39347;DHT22;26262;49.836;6.632;2023-07-09T12:35:56;35.90;67.80
39347;DHT22;26262;49.836;6.632;2023-07-09T12:38:23;36.00;65.60
39347;DHT22;26262;49.836;6.632;2023-07-09T12:40:49;35.70;68.00
39347;DHT22;26262;49.836;6.632;2023-07-09T12:43:17;35.80;66.50
39347;DHT22;26262;49.836;6.632;2023-07-09T12:45:45;35.80;66.80
39347;DHT22;26262;49.836;6.632;2023-07-09T12:48:10;36.00;67.10
39347;DHT22;26262;49.836;6.632;2023-07-09T12:50:38;36.20;64.30
39347;DHT22;26262;49.836;6.632;2023-07-09T12:53:14;36.50;64.60
39347;DHT22;26262;49.836;6.632;2023-07-09T12:55:40;36.60;64.60
39347;DHT22;26262;49.836;6.632;2023-07-09T12:58:10;36.60;63.10
39347;DHT22;26262;49.836;6.632;2023-07-09T13:00:36;36.60;62.00
39347;DHT22;26262;49.836;6.632;2023-07-09T13:03:02;36.50;61.10
39347;DHT22;26262;49.836;6.632;2023-07-09T13:05:28;36.10;61.80
39347;DHT22;26262;49.836;6.632;2023-07-09T13:07:54;35.90;64.00
39347;DHT22;26262;49.836;6.632;2023-07-09T13:10:24;35.90;65.40
39347;DHT22;26262;49.836;6.632;2023-07-09T13:12:52;35.00;68.80
39347;DHT22;26262;49.836;6.632;2023-07-09T13:15:23;34.40;70.50
39347;DHT22;26262;49.836;6.632;2023-07-09T13:17:49;34.00;75.10
39347;DHT22;26262;49.836;6.632;2023-07-09T13:20:14;33.50;77.40
39347;DHT22;26262;49.836;6.632;2023-07-09T13:22:41;33.20;78.90
39347;DHT22;26262;49.836;6.632;2023-07-09T13:25:08;32.50;80.50
39347;DHT22;26262;49.836;6.632;2023-07-09T13:27:33;32.00;83.10
39347;DHT22;26262;49.836;6.632;2023-07-09T13:29:59;31.50;84.20
39347;DHT22;26262;49.836;6.632;2023-07-09T13:32:25;31.10;85.70
39347;DHT22;26262;49.836;6.632;2023-07-09T13:34:51;30.60;87.90
39347;DHT22;26262;49.836;6.632;2023-07-09T13:37:16;30.40;88.10
39347;DHT22;26262;49.836;6.632;2023-07-09T13:39:42;30.10;87.70
39347;DHT22;26262;49.836;6.632;2023-07-09T13:42:12;29.90;89.50
39347;DHT22;26262;49.836;6.632;2023-07-09T13:44:38;29.60;90.10
39347;DHT22;26262;49.836;6.632;2023-07-09T13:47:04;29.20;81.00
39347;DHT22;26262;49.836;6.632;2023-07-09T13:49:31;28.80;81.70
39347;DHT22;26262;49.836;6.632;2023-07-09T13:51:57;28.10;87.10
39347;DHT22;26262;49.836;6.632;2023-07-09T13:54:24;26.80;92.00
39347;DHT22;26262;49.836;6.632;2023-07-09T13:56:50;26.50;93.70
39347;DHT22;26262;49.836;6.632;2023-07-09T13:59:17;26.40;93.80
39347;DHT22;26262;49.836;6.632;2023-07-09T14:01:43;26.00;97.60
39347;DHT22;26262;49.836;6.632;2023-07-09T14:04:09;25.20;99.90
39347;DHT22;26262;49.836;6.632;2023-07-09T14:06:35;25.10;99.90
39347;DHT22;26262;49.836;6.632;2023-07-09T14:09:01;24.80;99.90
39347;DHT22;26262;49.836;6.632;2023-07-09T14:11:26;24.40;99.90
39347;DHT22;26262;49.836;6.632;2023-07-09T14:13:52;23.70;99.90
39347;DHT22;26262;49.836;6.632;2023-07-09T14:16:17;22.90;99.90
39347;DHT22;26262;49.836;6.632;2023-07-09T14:18:43;22.70;99.90
39347;DHT22;26262;49.836;6.632;2023-07-09T14:21:10;22.60;99.90
39347;DHT22;26262;49.836;6.632;2023-07-09T14:23:37;22.60;99.90
39347;DHT22;26262;49.836;6.632;2023-07-09T14:26:03;22.40;99.90
39347;DHT22;26262;49.836;6.632;2023-07-09T14:28:28;22.10;99.90
39347;DHT22;26262;49.836;6.632;2023-07-09T14:30:53;22.40;99.90
39347;DHT22;26262;49.836;6.632;2023-07-09T14:33:19;22.50;99.90
39347;DHT22;26262;49.836;6.632;2023-07-09T14:35:45;22.40;99.90
39347;DHT22;26262;49.836;6.632;2023-07-09T14:38:15;22.10;99.90
39347;DHT22;26262;49.836;6.632;2023-07-09T14:40:42;22.00;99.90
39347;DHT22;26262;49.836;6.632;2023-07-09T14:43:08;22.10;99.90
39347;DHT22;26262;49.836;6.632;2023-07-09T14:45:35;22.40;99.90
39347;DHT22;26262;49.836;6.632;2023-07-09T14:48:00;22.60;99.90
39347;DHT22;26262;49.836;6.632;2023-07-09T14:50:26;22.80;99.90
39347;DHT22;26262;49.836;6.632;2023-07-09T14:52:51;23.00;99.90
39347;DHT22;26262;49.836;6.632;2023-07-09T14:55:18;23.20;99.90
39347;DHT22;26262;49.836;6.632;2023-07-09T14:57:44;23.20;99.90
39347;DHT22;26262;49.836;6.632;2023-07-09T15:00:13;23.10;99.90
39347;DHT22;26262;49.836;6.632;2023-07-09T15:02:40;22.50;99.90
39347;DHT22;26262;49.836;6.632;2023-07-09T15:05:11;22.20;99.90
39347;DHT22;26262;49.836;6.632;2023-07-09T15:07:37;22.10;99.90
39347;DHT22;26262;49.836;6.632;2023-07-09T15:10:02;21.70;99.90
39347;DHT22;26262;49.836;6.632;2023-07-09T15:12:33;21.60;99.90
39347;DHT22;26262;49.836;6.632;2023-07-09T15:15:06;21.60;99.90
39347;DHT22;26262;49.836;6.632;2023-07-09T15:17:37;21.80;99.90
39347;DHT22;26262;49.836;6.632;2023-07-09T15:20:02;21.70;99.90
39347;DHT22;26262;49.836;6.632;2023-07-09T15:22:30;21.90;99.90
39347;DHT22;26262;49.836;6.632;2023-07-09T15:24:56;22.00;99.90
39347;DHT22;26262;49.836;6.632;2023-07-09T15:27:22;21.80;99.90
39347;DHT22;26262;49.836;6.632;2023-07-09T15:29:47;21.80;99.90
39347;DHT22;26262;49.836;6.632;2023-07-09T15:32:13;21.80;99.90
39347;DHT22;26262;49.836;6.632;2023-07-09T15:34:38;21.60;99.90
39347;DHT22;26262;49.836;6.632;2023-07-09T15:37:08;21.80;99.90
39347;DHT22;26262;49.836;6.632;2023-07-09T15:39:36;22.10;99.90
39347;DHT22;26262;49.836;6.632;2023-07-09T15:42:01;22.30;99.90
39347;DHT22;26262;49.836;6.632;2023-07-09T15:44:26;22.60;99.90
39347;DHT22;26262;49.836;6.632;2023-07-09T15:46:52;22.90;99.90
39347;DHT22;26262;49.836;6.632;2023-07-09T15:49:22;23.00;99.90
39347;DHT22;26262;49.836;6.632;2023-07-09T15:51:47;23.00;99.90
39347;DHT22;26262;49.836;6.632;2023-07-09T15:54:19;23.30;99.90
39347;DHT22;26262;49.836;6.632;2023-07-09T15:56:45;23.60;99.90
39347;DHT22;26262;49.836;6.632;2023-07-09T16:01:49;24.00;99.90
39347;DHT22;26262;49.836;6.632;2023-07-09T16:04:14;23.80;99.90
39347;DHT22;26262;49.836;6.632;2023-07-09T16:06:39;23.70;99.90
39347;DHT22;26262;49.836;6.632;2023-07-09T16:09:06;24.10;99.90
39347;DHT22;26262;49.836;6.632;2023-07-09T16:11:31;24.30;99.90
39347;DHT22;26262;49.836;6.632;2023-07-09T16:13:57;24.40;99.90